Time;durP1;ratioP1;P1;durP2;ratioP2;P2;SDS_P1;SDS_P2;PMS_P1;PMS_P2;Temp;Humidity;BMP_temperature;BMP_pressure;BME280_temperature;BME280_humidity;BME280_pressure;Samples;Min_cycle;Max_cycle;Signal;HPM_P1;HPM_P2
2023/01/14 00:00:16;;;;;;;88.75;68.95;;;22.20;99.90;;;;;;1886149;76;21229;-86
2023/01/14 00:02:47;;;;;;;95.87;71.90;;;22.10;99.90;;;;;;1891507;74;21087;-86
2023/01/14 00:05:19;;;;;;;107.90;76.62;;;22.10;99.90;;;;;;1879256;76;21069;-86
2023/01/14 00:07:50;;;;;;;50.08;41.25;;;22.00;99.90;;;;;;1866738;75;21551;-86
2023/01/14 00:10:21;;;;;;;41.37;35.33;;;22.00;99.90;;;;;;1892592;76;21189;-86
2023/01/14 00:12:52;;;;;;;35.73;31.62;;;21.90;99.90;;;;;;1870389;74;21100;-86
2023/01/14 00:15:23;;;;;;;39.00;33.00;;;21.90;99.90;;;;;;1851999;77;21088;-86
2023/01/14 00:17:54;;;;;;;40.40;35.68;;;21.90;99.90;;;;;;1864786;77;21108;-85
2023/01/14 00:20:27;;;;;;;39.88;35.00;;;21.80;99.90;;;;;;1863617;77;21119;-86
2023/01/14 00:22:57;;;;;;;45.15;38.05;;;21.80;99.90;;;;;;1860947;75;21091;-86
2023/01/14 00:25:29;;;;;;;42.85;36.03;;;21.80;99.90;;;;;;1862073;77;21181;-85
2023/01/14 00:28:00;;;;;;;42.62;36.25;;;21.80;99.90;;;;;;1862943;75;21175;-86
2023/01/14 00:30:31;;;;;;;37.03;32.48;;;21.80;99.90;;;;;;1853836;75;21085;-86
2023/01/14 00:33:02;;;;;;;45.05;37.28;;;21.70;99.90;;;;;;1855088;76;21080;-85
2023/01/14 00:35:33;;;;;;;37.00;31.87;;;21.80;99.90;;;;;;1852371;77;21080;-86
2023/01/14 00:38:04;;;;;;;47.53;36.55;;;21.80;99.90;;;;;;1867540;77;21225;-87
2023/01/14 00:40:35;;;;;;;38.65;34.05;;;21.80;99.90;;;;;;1865807;75;21232;-85
2023/01/14 00:43:06;;;;;;;43.15;37.58;;;21.80;99.90;;;;;;1855644;75;21173;-84
2023/01/14 00:45:37;;;;;;;54.65;47.40;;;21.80;99.90;;;;;;1858199;75;21103;-85
2023/01/14 00:48:08;;;;;;;61.15;51.37;;;21.80;99.90;;;;;;1862225;77;21201;-85
2023/01/14 00:50:39;;;;;;;76.72;65.32;;;21.80;99.90;;;;;;1858008;77;21080;-85
2023/01/14 00:53:10;;;;;;;53.35;45.45;;;21.80;99.90;;;;;;1872691;75;21570;-86
2023/01/14 00:55:42;;;;;;;57.95;48.17;;;21.90;99.90;;;;;;1884964;75;21221;-81
2023/01/14 00:58:13;;;;;;;49.63;39.83;;;21.90;99.90;;;;;;1864146;76;21145;-83
2023/01/14 01:00:45;;;;;;;41.37;36.63;;;22.00;99.90;;;;;;1857331;75;21536;-82
2023/01/14 01:03:17;;;;;;;40.55;34.50;;;22.00;99.90;;;;;;1858324;77;21150;-83
2023/01/14 01:05:49;;;;;;;39.50;34.15;;;22.10;99.90;;;;;;1867920;75;21139;-81
2023/01/14 01:08:21;;;;;;;35.92;32.08;;;22.10;99.90;;;;;;1865554;75;21084;-82
2023/01/14 01:10:54;;;;;;;35.78;31.93;;;22.20;99.90;;;;;;1865403;76;21185;-83
2023/01/14 01:13:25;;;;;;;34.92;31.25;;;22.20;99.90;;;;;;1851359;76;21143;-83
2023/01/14 01:15:58;;;;;;;37.83;31.85;;;22.20;99.90;;;;;;1865618;75;21130;-82
2023/01/14 01:18:30;;;;;;;38.40;32.45;;;22.30;99.90;;;;;;1857528;75;21126;-81
2023/01/14 01:21:06;;;;;;;34.75;31.02;;;22.30;99.90;;;;;;1856017;75;21179;-82
2023/01/14 01:23:43;;;;;;;38.00;34.03;;;22.40;99.90;;;;;;1863337;75;21123;-81
2023/01/14 01:26:13;;;;;;;37.67;33.78;;;22.50;99.90;;;;;;1863135;75;21057;-81
2023/01/14 01:28:44;;;;;;;38.00;33.53;;;22.60;99.90;;;;;;1854856;75;21139;-81
2023/01/14 01:31:15;;;;;;;44.50;38.80;;;22.60;99.90;;;;;;1857537;76;21159;-82
2023/01/14 01:33:47;;;;;;;37.13;32.25;;;22.70;99.90;;;;;;1858942;76;21127;-83
2023/01/14 01:36:20;;;;;;;40.63;33.48;;;22.80;99.90;;;;;;1823276;77;21141;-83
2023/01/14 01:38:51;;;;;;;39.00;32.83;;;22.80;99.90;;;;;;1854847;75;21261;-83
2023/01/14 01:41:30;;;;;;;35.10;31.30;;;22.90;99.90;;;;;;1853035;76;21075;-83
2023/01/14 01:44:11;;;;;;;37.70;32.58;;;23.00;99.90;;;;;;1847732;76;21072;-83
2023/01/14 01:46:40;;;;;;;35.70;31.87;;;23.00;99.90;;;;;;1832758;76;21136;-82
2023/01/14 01:49:19;;;;;;;36.68;32.78;;;23.10;99.90;;;;;;1854032;76;21059;-72
2023/01/14 01:52:17;;;;;;;37.40;32.85;;;23.20;99.90;;;;;;1860481;76;21160;-73
2023/01/14 01:54:54;;;;;;;38.33;34.08;;;23.20;99.90;;;;;;1815553;77;21896;-73
2023/01/14 01:57:28;;;;;;;39.48;34.50;;;23.30;99.90;;;;;;1854430;76;21081;-74
2023/01/14 02:00:02;;;;;;;35.50;31.60;;;23.40;99.90;;;;;;1860466;76;21075;-72
2023/01/14 02:02:36;;;;;;;40.10;30.95;;;23.40;99.90;;;;;;1851543;75;21201;-73
2023/01/14 02:05:08;;;;;;;35.35;31.40;;;23.50;99.90;;;;;;1850717;76;21174;-73
2023/01/14 02:07:43;;;;;;;36.85;31.02;;;23.50;99.90;;;;;;1852851;75;21074;-73
2023/01/14 02:10:19;;;;;;;40.45;33.55;;;23.60;99.90;;;;;;1846301;77;21551;-73
2023/01/14 02:13:07;;;;;;;40.23;33.10;;;23.70;99.90;;;;;;1847869;76;21118;-73
2023/01/14 02:15:58;;;;;;;38.05;32.85;;;23.70;99.90;;;;;;1855021;75;21139;-68
2023/01/14 02:19:09;;;;;;;37.08;32.80;;;23.80;99.90;;;;;;1754699;75;21115;-72
2023/01/14 02:21:49;;;;;;;119.62;103.83;;;23.80;99.90;;;;;;1855876;75;21163;-73
2023/01/14 02:24:51;;;;;;;40.10;32.38;;;23.90;99.90;;;;;;1838525;75;21205;-73
2023/01/14 02:27:30;;;;;;;37.65;31.85;;;24.00;99.90;;;;;;1848112;76;21103;-70
2023/01/14 02:30:07;;;;;;;39.50;30.62;;;24.10;99.90;;;;;;1858649;75;21168;-69
2023/01/14 02:32:49;;;;;;;37.40;32.48;;;24.20;99.90;;;;;;1850041;76;21135;-70
2023/01/14 02:35:39;;;;;;;36.40;30.97;;;24.20;99.90;;;;;;1858525;75;21145;-71
2023/01/14 02:38:27;;;;;;;40.03;32.67;;;24.30;99.90;;;;;;1824997;75;21161;-70
2023/01/14 02:41:01;;;;;;;40.50;30.62;;;24.40;99.90;;;;;;1855711;75;21171;-74
2023/01/14 02:46:44;;;;;;;36.08;30.10;;;24.50;99.90;;;;;;1858867;75;21151;-72
2023/01/14 02:49:22;;;;;;;38.10;30.37;;;24.60;99.90;;;;;;1843887;76;21145;-70
2023/01/14 02:51:57;;;;;;;36.65;30.23;;;24.70;99.90;;;;;;1853532;75;21189;-70
2023/01/14 02:54:29;;;;;;;33.92;29.98;;;24.70;99.90;;;;;;1864491;75;21191;-71
2023/01/14 02:57:20;;;;;;;35.17;31.17;;;24.80;99.90;;;;;;1862941;75;21116;-71
2023/01/14 02:59:54;;;;;;;39.03;30.12;;;24.80;99.90;;;;;;1889902;74;21646;-71
2023/01/14 03:02:43;;;;;;;37.38;30.20;;;24.90;99.90;;;;;;1896959;74;21694;-71
2023/01/14 03:05:26;;;;;;;35.05;31.00;;;25.00;99.90;;;;;;1892937;74;21887;-71
2023/01/14 03:08:02;;;;;;;43.78;32.73;;;25.00;99.90;;;;;;1898286;74;21746;-71
2023/01/14 03:10:38;;;;;;;44.57;34.50;;;25.10;99.90;;;;;;1892967;74;21203;-71
2023/01/14 03:13:17;;;;;;;40.27;32.43;;;25.20;99.90;;;;;;1906675;74;21124;-70
2023/01/14 03:16:06;;;;;;;39.58;33.55;;;25.30;99.90;;;;;;1905525;74;22367;-70
2023/01/14 03:18:39;;;;;;;40.20;34.35;;;25.30;99.90;;;;;;1889301;74;21205;-69
2023/01/14 03:21:16;;;;;;;35.83;32.03;;;25.40;99.90;;;;;;1891218;74;21085;-70
2023/01/14 03:23:49;;;;;;;44.05;33.70;;;25.50;99.90;;;;;;1888278;74;21569;-70
2023/01/14 03:26:22;;;;;;;41.77;31.97;;;25.60;99.90;;;;;;1890045;74;21087;-71
2023/01/14 03:28:56;;;;;;;43.68;35.58;;;25.70;99.90;;;;;;1902971;74;21289;-71
2023/01/14 03:31:29;;;;;;;40.92;33.28;;;25.80;99.80;;;;;;1898398;74;21190;-71
2023/01/14 03:34:15;;;;;;;;;;;;;;;;;;;;;
2023/01/14 03:36:58;;;;;;;42.80;33.87;;;26.00;99.60;;;;;;1864701;76;21135;-69
2023/01/14 03:39:31;;;;;;;39.13;31.60;;;26.10;99.60;;;;;;1860337;76;21661;-70
2023/01/14 03:42:21;;;;;;;35.05;30.25;;;26.10;99.00;;;;;;1863134;76;21256;-70
2023/01/14 03:45:01;;;;;;;39.75;32.08;;;26.20;98.30;;;;;;1861012;76;21199;-70
2023/01/14 03:47:35;;;;;;;31.90;28.45;;;26.30;98.20;;;;;;1868755;76;21161;-70
2023/01/14 03:50:10;;;;;;;32.83;27.77;;;26.40;97.90;;;;;;1862913;76;21545;-70
2023/01/14 03:52:56;;;;;;;40.17;28.10;;;26.40;97.50;;;;;;1864902;76;21079;-69
2023/01/14 03:55:50;;;;;;;27.98;23.95;;;26.60;96.30;;;;;;1863879;76;21168;-71
2023/01/14 03:58:45;;;;;;;27.20;23.77;;;26.80;96.40;;;;;;1845137;76;21633;-71
2023/01/14 04:01:21;;;;;;;28.55;22.87;;;26.90;95.10;;;;;;1797590;78;21178;-70
2023/01/14 04:03:54;;;;;;;27.13;22.93;;;27.00;94.60;;;;;;1792492;78;21239;-71
2023/01/14 04:06:25;;;;;;;29.10;25.20;;;27.10;93.40;;;;;;1765374;79;21131;-70
2023/01/14 04:08:57;;;;;;;33.38;25.40;;;27.20;93.30;;;;;;1770982;80;21283;-70
2023/01/14 04:11:28;;;;;;;28.80;23.02;;;27.30;93.60;;;;;;1801316;78;21583;-71
2023/01/14 04:16:49;;;;;;;22.67;19.35;;;27.50;90.70;;;;;;1795357;78;21130;-70
2023/01/14 04:19:20;;;;;;;25.08;18.00;;;27.60;89.80;;;;;;1772968;80;21190;-71
2023/01/14 04:21:51;;;;;;;22.35;18.37;;;27.70;90.70;;;;;;1808697;78;21076;-71
2023/01/14 04:24:27;;;;;;;17.95;15.68;;;27.80;90.10;;;;;;1743418;81;21294;-71
2023/01/14 04:26:55;;;;;;;18.92;15.78;;;27.90;90.20;;;;;;1780688;79;21732;-71
2023/01/14 04:29:26;;;;;;;19.80;15.43;;;28.00;88.60;;;;;;1761338;80;21111;-71
2023/01/14 04:31:57;;;;;;;22.25;15.85;;;28.10;86.00;;;;;;1770080;80;21304;-72
2023/01/14 04:34:29;;;;;;;19.12;16.35;;;28.20;85.70;;;;;;1777658;79;21226;-70
2023/01/14 04:37:00;;;;;;;25.08;17.07;;;28.40;85.10;;;;;;1782515;79;21566;-74
2023/01/14 04:39:31;;;;;;;22.90;16.02;;;28.50;85.50;;;;;;1763175;80;21174;-71
2023/01/14 04:44:52;;;;;;;24.55;15.08;;;28.60;85.00;;;;;;1742906;81;21123;-70
2023/01/14 04:47:24;;;;;;;16.50;13.95;;;28.70;85.30;;;;;;1771034;80;21110;-71
2023/01/14 04:53:09;;;;;;;19.80;15.25;;;29.00;82.50;;;;;;1789586;79;21768;-71
2023/01/14 04:55:41;;;;;;;14.55;12.60;;;29.00;83.10;;;;;;1837036;76;21097;-73
2023/01/14 04:58:15;;;;;;;16.00;12.78;;;29.10;79.90;;;;;;1841470;76;21089;-70
2023/01/14 05:00:47;;;;;;;15.65;13.30;;;29.20;79.60;;;;;;1845758;76;21119;-70
2023/01/14 05:03:18;;;;;;;17.67;13.93;;;29.30;79.30;;;;;;1850865;76;21689;-73
2023/01/14 05:05:50;;;;;;;17.23;13.13;;;29.40;77.90;;;;;;1847227;76;21144;-73
2023/01/14 05:08:22;;;;;;;18.02;14.65;;;29.40;78.80;;;;;;1857212;76;21807;-70
2023/01/14 05:10:53;;;;;;;17.17;13.22;;;29.50;79.00;;;;;;1865091;76;21553;-72
2023/01/14 05:13:25;;;;;;;16.60;10.95;;;29.50;76.10;;;;;;1844448;76;21083;-72
2023/01/14 05:15:58;;;;;;;15.32;11.93;;;29.50;73.80;;;;;;1843955;76;21054;-71
2023/01/14 05:18:30;;;;;;;14.93;12.68;;;29.60;75.10;;;;;;1847818;76;21548;-71
2023/01/14 05:21:02;;;;;;;16.17;12.65;;;29.70;76.20;;;;;;1840905;76;21209;-73
2023/01/14 05:23:34;;;;;;;16.95;12.10;;;29.70;75.30;;;;;;1838874;76;21067;-72
2023/01/14 05:26:05;;;;;;;20.02;12.78;;;29.80;74.20;;;;;;1841634;76;21627;-72
2023/01/14 05:28:36;;;;;;;12.68;10.58;;;29.90;74.80;;;;;;1840678;76;21144;-73
2023/01/14 05:31:08;;;;;;;16.20;11.65;;;30.00;69.50;;;;;;1837827;76;21659;-73
2023/01/14 05:33:39;;;;;;;19.17;11.20;;;30.00;68.90;;;;;;1835841;76;21203;-72
2023/01/14 05:36:10;;;;;;;13.95;12.40;;;30.00;69.40;;;;;;1825209;76;21153;-72
2023/01/14 05:38:42;;;;;;;16.07;12.47;;;30.00;70.60;;;;;;1834649;76;21156;-72
2023/01/14 05:41:16;;;;;;;15.78;12.85;;;30.00;69.90;;;;;;1840227;76;21690;-72
2023/01/14 05:46:37;;;;;;;17.20;13.15;;;30.30;69.10;;;;;;1834640;76;21227;-72
2023/01/14 05:49:27;;;;;;;13.78;11.70;;;30.30;69.70;;;;;;1817216;77;21192;-71
2023/01/14 05:51:58;;;;;;;15.23;12.35;;;30.40;69.30;;;;;;1881639;75;21126;-71
2023/01/14 05:54:37;;;;;;;17.85;13.98;;;30.40;69.90;;;;;;1876104;75;21166;-72
2023/01/14 05:57:11;;;;;;;16.12;12.88;;;30.50;68.80;;;;;;1885626;75;21053;-73
2023/01/14 05:59:48;;;;;;;16.60;11.65;;;30.50;68.70;;;;;;1873459;75;22409;-74
2023/01/14 06:08:09;;;;;;;16.25;11.60;;;30.30;68.40;;;;;;1878897;76;21159;-72
2023/01/14 06:10:44;;;;;;;12.82;10.65;;;30.40;67.50;;;;;;1877255;75;21567;-72
2023/01/14 06:13:18;;;;;;;11.85;10.20;;;30.50;64.20;;;;;;1880230;75;21173;-72
2023/01/14 06:15:55;;;;;;;13.78;10.88;;;30.60;64.40;;;;;;1844715;76;21264;-72
2023/01/14 06:18:27;;;;;;;16.35;12.07;;;30.70;65.80;;;;;;1810525;77;21198;-72
2023/01/14 06:21:00;;;;;;;14.78;11.97;;;30.80;64.50;;;;;;1839590;75;21190;-70
2023/01/14 06:23:38;;;;;;;16.42;12.47;;;30.80;64.90;;;;;;1870133;75;21178;-70
2023/01/14 06:26:14;;;;;;;13.32;11.28;;;30.90;66.10;;;;;;1875420;75;21108;-70
2023/01/14 06:28:49;;;;;;;14.90;11.38;;;30.90;66.30;;;;;;1865177;75;21143;-71
2023/01/14 06:31:21;;;;;;;13.68;11.25;;;31.00;63.30;;;;;;1870300;75;21231;-72
2023/01/14 06:33:58;;;;;;;12.95;10.82;;;31.00;63.50;;;;;;1865811;75;21161;-70
2023/01/14 06:36:28;;;;;;;;;;;31.00;64.20;;;;;;1869548;75;21142;-72
2023/01/14 06:39:00;;;;;;;15.43;12.00;;;31.00;62.90;;;;;;1842601;76;20289;-71
2023/01/14 06:41:31;;;;;;;17.70;12.30;;;31.00;63.00;;;;;;1815712;77;21700;-71
2023/01/14 06:44:04;;;;;;;12.63;11.03;;;31.00;63.50;;;;;;1873778;75;21117;-72
2023/01/14 06:46:49;;;;;;;15.18;11.88;;;31.00;64.70;;;;;;1862791;75;21120;-71
2023/01/14 06:49:16;;;;;;;13.83;11.88;;;31.00;62.40;;;;;;1885123;75;21192;-71
2023/01/14 06:51:49;;;;;;;15.58;10.78;;;31.00;61.70;;;;;;1875271;75;21174;-71
2023/01/14 06:54:28;;;;;;;14.33;11.78;;;31.00;60.60;;;;;;1881515;75;21659;-72
2023/01/14 06:57:15;;;;;;;13.95;10.72;;;31.00;62.80;;;;;;1881994;75;21275;-72
2023/01/14 06:59:55;;;;;;;11.83;10.60;;;31.00;60.90;;;;;;1875571;75;21072;-71
2023/01/14 07:02:38;;;;;;;14.63;12.03;;;31.00;59.90;;;;;;1874095;75;21135;-73
2023/01/14 07:05:22;;;;;;;14.45;11.20;;;30.90;61.70;;;;;;1863848;75;21098;-73
2023/01/14 07:07:58;;;;;;;19.92;10.58;;;30.90;61.70;;;;;;1845345;76;21180;-71
2023/01/14 07:10:32;;;;;;;12.13;10.68;;;31.00;60.10;;;;;;1804068;78;21277;-72
2023/01/14 07:13:04;;;;;;;13.75;11.28;;;31.00;60.20;;;;;;1848396;76;21112;-71
2023/01/14 07:15:40;;;;;;;14.03;10.50;;;31.00;60.40;;;;;;1851543;76;21233;-72
2023/01/14 07:18:17;;;;;;;12.93;10.83;;;31.00;59.50;;;;;;1827438;77;21142;-72
2023/01/14 07:20:54;;;;;;;13.32;10.00;;;31.00;60.40;;;;;;1792030;78;21616;-73
2023/01/14 07:23:34;;;;;;;14.50;11.20;;;31.00;59.60;;;;;;1846762;76;21347;-73
2023/01/14 07:26:25;;;;;;;12.93;10.90;;;31.00;59.60;;;;;;1812191;77;21267;-72
2023/01/14 07:28:58;;;;;;;15.10;10.40;;;30.90;60.90;;;;;;1802581;75;22350;-70
2023/01/14 07:31:29;;;;;;;15.70;10.80;;;31.00;60.10;;;;;;1814221;77;21622;-74
2023/01/14 07:34:01;;;;;;;12.25;10.30;;;31.00;61.50;;;;;;1807831;78;21223;-73
2023/01/14 07:36:33;;;;;;;13.68;10.55;;;31.00;60.20;;;;;;1829834;76;21167;-73
2023/01/14 07:39:05;;;;;;;11.83;10.38;;;31.10;60.90;;;;;;1836086;76;21087;-71
2023/01/14 07:41:37;;;;;;;11.43;10.23;;;31.10;59.00;;;;;;1875645;75;21560;-73
2023/01/14 07:44:09;;;;;;;14.13;10.05;;;31.20;60.30;;;;;;1874168;75;21184;-72
2023/01/14 07:46:41;;;;;;;10.93;9.75;;;31.20;58.70;;;;;;1876510;75;21108;-73
2023/01/14 07:49:35;;;;;;;18.55;10.15;;;31.20;58.40;;;;;;1884512;75;21163;-72
2023/01/14 07:52:05;;;;;;;12.58;10.80;;;31.20;57.70;;;;;;1884426;75;21151;-71
2023/01/14 07:54:38;;;;;;;13.98;10.65;;;31.30;57.90;;;;;;1875690;75;21170;-72
2023/01/14 07:57:11;;;;;;;18.05;10.50;;;31.30;58.40;;;;;;1854844;76;21114;-72
2023/01/14 07:59:44;;;;;;;14.73;11.08;;;31.20;59.50;;;;;;1855737;76;21171;-72
2023/01/14 08:02:15;;;;;;;13.03;10.25;;;31.30;59.40;;;;;;1850756;76;21198;-73
2023/01/14 08:04:47;;;;;;;13.70;11.00;;;31.30;59.00;;;;;;1861791;76;21192;-74
2023/01/14 08:07:18;;;;;;;12.88;10.80;;;31.30;59.70;;;;;;1861241;76;21232;-72
2023/01/14 08:09:49;;;;;;;13.53;11.15;;;31.20;58.90;;;;;;1863346;76;21210;-72
2023/01/14 08:12:23;;;;;;;15.32;10.45;;;31.30;58.50;;;;;;1859811;76;21542;-71
2023/01/14 08:14:58;;;;;;;11.53;10.10;;;31.30;56.60;;;;;;1856706;76;21119;-71
2023/01/14 08:17:30;;;;;;;13.72;10.23;;;31.20;57.30;;;;;;1858642;76;21665;-72
2023/01/14 08:20:04;;;;;;;30.60;22.27;;;31.20;56.70;;;;;;1848490;76;21154;-73
2023/01/14 08:22:47;;;;;;;13.98;11.45;;;31.20;56.00;;;;;;1859899;76;21187;-71
2023/01/14 08:25:23;;;;;;;13.65;10.50;;;31.20;55.60;;;;;;1856949;75;21191;-72
2023/01/14 08:27:55;;;;;;;12.00;9.90;;;31.20;55.80;;;;;;1855944;76;21693;-71
2023/01/14 08:30:31;;;;;;;13.05;11.63;;;31.20;56.50;;;;;;1822052;77;21272;-71
2023/01/14 08:33:18;;;;;;;13.30;10.72;;;31.10;56.20;;;;;;1847112;76;21160;-71
2023/01/14 08:35:51;;;;;;;14.98;10.82;;;31.10;55.80;;;;;;1852029;76;21155;-71
2023/01/14 08:38:25;;;;;;;15.85;12.43;;;31.20;56.00;;;;;;1861001;76;21083;-72
2023/01/14 08:40:59;;;;;;;16.90;10.68;;;31.10;57.10;;;;;;1857780;76;21516;-71
2023/01/14 08:43:30;;;;;;;12.45;10.75;;;31.10;56.90;;;;;;1855862;76;21136;-72
2023/01/14 08:46:04;;;;;;;15.58;10.43;;;31.10;56.10;;;;;;1857151;76;21140;-70
2023/01/14 08:48:36;;;;;;;13.10;9.88;;;31.10;55.70;;;;;;1855610;76;21416;-72
2023/01/14 08:51:09;;;;;;;15.08;9.68;;;31.10;56.30;;;;;;1803720;78;21158;-72
2023/01/14 08:53:41;;;;;;;13.68;10.15;;;31.10;55.60;;;;;;1823137;77;21225;-72
2023/01/14 08:56:16;;;;;;;12.20;10.08;;;31.20;56.00;;;;;;1845492;76;21094;-72
2023/01/14 08:58:47;;;;;;;13.38;9.83;;;31.20;56.40;;;;;;1837780;76;21258;-72
2023/01/14 09:01:19;;;;;;;20.35;12.65;;;31.20;55.40;;;;;;1844249;76;21617;-73
2023/01/14 09:03:53;;;;;;;14.75;11.22;;;31.10;56.40;;;;;;1832178;77;21060;-71
2023/01/14 09:06:24;;;;;;;11.78;10.45;;;31.10;56.50;;;;;;1851870;76;21125;-71
2023/01/14 09:17:23;;;;;;;13.05;10.38;;;31.10;56.70;;;;;;1836117;77;21232;-72
2023/01/14 09:20:01;;;;;;;14.75;10.58;;;31.10;56.80;;;;;;1839438;77;21158;-71
2023/01/14 09:22:32;;;;;;;13.53;10.30;;;31.10;55.80;;;;;;1843912;77;21203;-73
2023/01/14 09:25:03;;;;;;;12.43;10.23;;;31.10;56.20;;;;;;1805207;78;21102;-71
2023/01/14 09:27:37;;;;;;;14.63;10.58;;;31.00;56.00;;;;;;1834713;77;21150;-72
2023/01/14 09:30:09;;;;;;;13.90;11.12;;;31.00;55.50;;;;;;1842851;77;21141;-72
2023/01/14 09:32:41;;;;;;;12.05;10.00;;;31.00;56.40;;;;;;1834042;77;21088;-72
2023/01/14 09:35:12;;;;;;;12.35;9.68;;;31.00;56.50;;;;;;1833155;77;21169;-72
2023/01/14 09:37:43;;;;;;;13.28;10.93;;;31.00;56.90;;;;;;1834750;77;21172;-71
2023/01/14 09:40:15;;;;;;;16.12;11.65;;;30.90;57.30;;;;;;1834514;77;21197;-71
2023/01/14 09:42:48;;;;;;;15.93;12.47;;;30.90;57.90;;;;;;1835391;77;21188;-71
2023/01/14 09:45:36;;;;;;;17.82;10.58;;;30.80;57.20;;;;;;1860894;73;21085;-71
2023/01/14 09:48:18;;;;;;;18.23;11.00;;;30.70;57.00;;;;;;1947452;73;21102;-70
2023/01/14 09:51:13;;;;;;;12.75;10.32;;;30.70;56.90;;;;;;1962934;72;21127;-71
2023/01/14 09:54:10;;;;;;;12.90;10.45;;;30.80;56.80;;;;;;1908988;74;21102;-72
2023/01/14 09:56:44;;;;;;;17.12;12.35;;;30.80;56.40;;;;;;1901800;74;21152;-71
2023/01/14 09:59:21;;;;;;;13.95;11.28;;;30.70;57.00;;;;;;1915330;74;21195;-71
2023/01/14 10:02:15;;;;;;;16.82;13.25;;;30.70;58.30;;;;;;1934600;73;21110;-71
2023/01/14 10:05:10;;;;;;;21.42;13.03;;;30.60;58.60;;;;;;1937916;73;21118;-71
2023/01/14 10:07:42;;;;;;;17.45;12.75;;;30.40;59.00;;;;;;1936240;72;21192;-71
2023/01/14 10:10:39;;;;;;;17.70;13.80;;;30.30;59.70;;;;;;1935421;73;21075;-71
2023/01/14 10:13:16;;;;;;;18.73;11.68;;;30.20;60.30;;;;;;1932238;73;21190;-70
2023/01/14 10:15:58;;;;;;;15.38;11.38;;;30.10;58.60;;;;;;1958689;72;21073;-71
2023/01/14 10:18:53;;;;;;;13.10;11.18;;;30.10;59.40;;;;;;1957601;72;21106;-71
2023/01/14 10:21:32;;;;;;;18.67;12.68;;;30.10;59.50;;;;;;1951460;72;21060;-71
2023/01/14 10:24:03;;;;;;;18.80;13.78;;;30.00;60.50;;;;;;1954928;72;21075;-71
2023/01/14 10:26:35;;;;;;;16.67;12.25;;;30.00;61.50;;;;;;1961842;72;21130;-71
2023/01/14 10:29:17;;;;;;;19.85;13.32;;;29.90;60.20;;;;;;1954241;72;21221;-70
2023/01/14 10:32:04;;;;;;;18.23;12.75;;;29.80;60.30;;;;;;1940784;72;21074;-71
2023/01/14 10:34:38;;;;;;;15.85;12.40;;;29.80;61.90;;;;;;1906423;74;21245;-71
2023/01/14 10:37:10;;;;;;;17.95;13.28;;;29.70;62.30;;;;;;1958405;72;21039;-71
2023/01/14 10:39:54;;;;;;;22.45;13.18;;;29.70;63.20;;;;;;1961488;72;21142;-71
2023/01/14 10:42:32;;;;;;;19.27;13.15;;;29.70;63.50;;;;;;1957801;72;21040;-70
2023/01/14 10:45:03;;;;;;;15.83;12.80;;;29.60;63.80;;;;;;1965575;72;21154;-70
2023/01/14 10:47:35;;;;;;;17.77;13.30;;;29.50;64.50;;;;;;1963739;72;21111;-70
2023/01/14 10:50:25;;;;;;;23.52;15.40;;;29.40;65.20;;;;;;1961899;72;21127;-70
2023/01/14 10:52:57;;;;;;;18.05;14.78;;;29.40;65.50;;;;;;1967623;72;21110;-70
2023/01/14 10:55:30;;;;;;;27.95;15.55;;;29.30;65.60;;;;;;1950834;72;21133;-71
2023/01/14 10:58:09;;;;;;;27.15;16.45;;;29.30;66.10;;;;;;1956641;72;21085;-69
2023/01/14 11:00:43;;;;;;;20.35;14.78;;;29.30;66.90;;;;;;1955675;72;21151;-70
2023/01/14 11:03:25;;;;;;;23.47;16.17;;;29.20;67.10;;;;;;1959704;73;21250;-73
2023/01/14 11:05:59;;;;;;;29.48;19.42;;;29.10;67.50;;;;;;1957605;72;21100;-72
2023/01/14 11:08:42;;;;;;;25.30;18.70;;;29.00;67.80;;;;;;1943916;72;21570;-70
2023/01/14 11:11:22;;;;;;;25.75;19.12;;;29.00;68.80;;;;;;1947212;72;21115;-69
2023/01/14 11:13:54;;;;;;;33.02;19.75;;;28.90;68.90;;;;;;1956409;72;21491;-71
2023/01/14 11:16:31;;;;;;;42.08;22.05;;;28.80;69.00;;;;;;1945129;72;21232;-71
2023/01/14 11:19:04;;;;;;;37.10;24.37;;;28.80;69.50;;;;;;1940776;72;21056;-70
2023/01/14 11:21:49;;;;;;;35.43;20.43;;;28.70;69.80;;;;;;1946163;72;21151;-70
2023/01/14 11:24:26;;;;;;;;;;;28.70;69.40;;;;;;1943019;73;21637;-69
2023/01/14 11:27:19;;;;;;;28.60;19.55;;;28.70;70.30;;;;;;1938963;72;20187;-70
2023/01/14 11:29:55;;;;;;;32.85;24.18;;;28.60;70.10;;;;;;1945603;73;21158;-70
2023/01/14 11:32:29;;;;;;;28.23;21.55;;;28.60;70.10;;;;;;1946620;73;21068;-69
2023/01/14 11:35:02;;;;;;;33.15;22.80;;;28.60;70.30;;;;;;1948177;72;21539;-71
2023/01/14 11:37:37;;;;;;;30.20;19.48;;;28.60;70.80;;;;;;1943196;73;21242;-70
2023/01/14 11:40:10;;;;;;;25.02;19.02;;;28.60;70.80;;;;;;1944071;73;21180;-70
2023/01/14 11:42:46;;;;;;;28.87;19.57;;;28.60;71.10;;;;;;1936388;73;21732;-70
2023/01/14 11:45:21;;;;;;;27.93;21.00;;;28.60;71.30;;;;;;1943912;73;21147;-70
2023/01/14 11:47:56;;;;;;;28.27;20.97;;;28.60;71.50;;;;;;1944817;73;21539;-71
2023/01/14 11:50:30;;;;;;;28.67;21.30;;;28.50;72.60;;;;;;1947321;72;21118;-70
2023/01/14 11:53:03;;;;;;;32.17;22.82;;;28.50;72.00;;;;;;1946025;73;21745;-70
2023/01/14 11:55:39;;;;;;;38.33;22.30;;;28.50;72.00;;;;;;1943434;73;21173;-70
2023/01/14 11:58:13;;;;;;;27.30;22.82;;;28.50;72.40;;;;;;1946036;73;21131;-71
2023/01/14 12:00:46;;;;;;;31.82;22.80;;;28.50;72.60;;;;;;1938908;72;21167;-70
2023/01/14 12:03:35;;;;;;;31.02;22.58;;;28.50;72.70;;;;;;1939952;73;21145;-68
2023/01/14 12:06:14;;;;;;;32.85;22.65;;;28.40;72.80;;;;;;1939847;73;21176;-69
2023/01/14 12:08:48;;;;;;;30.17;23.60;;;28.40;73.10;;;;;;1948187;73;21131;-69
2023/01/14 12:11:22;;;;;;;29.40;20.80;;;28.40;73.40;;;;;;1942521;72;21683;-70
2023/01/14 12:17:01;;;;;;;35.50;21.68;;;28.30;74.00;;;;;;1945538;72;21197;-78
2023/01/14 12:19:53;;;;;;;31.52;21.40;;;28.30;74.70;;;;;;1946720;72;21115;-83
2023/01/14 12:23:00;;;;;;;38.48;22.15;;;28.30;75.30;;;;;;1941960;73;21108;-84
2023/01/14 12:25:40;;;;;;;35.55;23.00;;;28.20;75.60;;;;;;1937852;73;21173;-84
2023/01/14 12:28:30;;;;;;;32.88;22.40;;;28.20;76.20;;;;;;1942064;73;21189;-85
2023/01/14 12:31:09;;;;;;;32.08;21.70;;;28.10;76.40;;;;;;1940828;73;21151;-85
2023/01/14 12:33:57;;;;;;;30.40;21.87;;;28.10;76.70;;;;;;1946543;73;21221;-84
2023/01/14 12:36:36;;;;;;;33.83;22.55;;;28.10;77.30;;;;;;1945443;73;21070;-85
2023/01/14 12:47:55;;;;;;;28.12;22.60;;;28.00;78.40;;;;;;1941607;73;21072;-83
2023/01/14 12:50:29;;;;;;;31.10;22.05;;;28.00;78.80;;;;;;1941487;73;21515;-84
2023/01/14 12:53:00;;;;;;;31.05;22.50;;;27.90;79.00;;;;;;1949796;73;21168;-84
2023/01/14 12:55:38;;;;;;;30.97;23.38;;;27.90;79.10;;;;;;1941638;73;21111;-85
2023/01/14 12:58:11;;;;;;;31.02;22.62;;;27.90;79.30;;;;;;1942790;73;21120;-85
2023/01/14 13:00:42;;;;;;;29.07;21.93;;;27.90;79.40;;;;;;1939537;73;21551;-84
2023/01/14 13:03:16;;;;;;;33.63;22.55;;;27.90;79.50;;;;;;1943805;73;21052;-84
2023/01/14 13:05:48;;;;;;;31.60;23.50;;;27.90;79.80;;;;;;1937881;73;21118;-84
2023/01/14 13:08:32;;;;;;;36.45;24.92;;;27.90;80.10;;;;;;1940171;73;21646;-85
2023/01/14 13:11:11;;;;;;;37.85;23.80;;;27.80;80.30;;;;;;1938866;73;21060;-84
2023/01/14 13:13:44;;;;;;;30.92;23.32;;;27.80;80.40;;;;;;1939065;73;21155;-84
2023/01/14 13:16:39;;;;;;;35.33;23.42;;;27.80;80.50;;;;;;1940511;73;21620;-83
2023/01/14 13:19:33;;;;;;;30.57;21.97;;;27.80;80.50;;;;;;1938965;73;21210;-84
2023/01/14 13:22:11;;;;;;;29.57;21.87;;;27.80;80.50;;;;;;1943738;73;21129;-84
2023/01/14 13:24:50;;;;;;;28.10;22.50;;;27.70;80.60;;;;;;1941455;73;21179;-84
2023/01/14 13:30:23;;;;;;;30.90;22.95;;;27.70;80.70;;;;;;1889379;73;21162;-85
2023/01/14 13:33:15;;;;;;;27.52;20.95;;;27.70;80.90;;;;;;1943143;73;21532;-85
2023/01/14 13:36:12;;;;;;;30.85;22.60;;;27.70;80.90;;;;;;1937592;73;21127;-86
2023/01/14 13:39:04;;;;;;;25.48;21.10;;;27.60;80.90;;;;;;1936593;73;21195;-84
2023/01/14 13:41:41;;;;;;;29.00;21.55;;;27.60;81.10;;;;;;1941674;73;21079;-84
2023/01/14 13:44:26;;;;;;;29.12;22.22;;;27.60;81.50;;;;;;1936228;73;21137;-85
2023/01/14 13:47:05;;;;;;;28.85;23.05;;;27.60;81.90;;;;;;1934202;73;21155;-84
2023/01/14 13:49:45;;;;;;;28.38;22.35;;;27.60;82.10;;;;;;1935316;73;21188;-84
2023/01/14 13:52:21;;;;;;;28.62;21.55;;;27.50;82.20;;;;;;1942330;73;21646;-85
2023/01/14 13:55:04;;;;;;;29.63;23.00;;;27.50;82.30;;;;;;1940488;73;21108;-84
2023/01/14 13:57:40;;;;;;;30.82;23.40;;;27.50;82.40;;;;;;1936789;73;21476;-82